createdAt,value
2023-03-04T00:01:29.054Z,99.41
2023-03-04T00:03:58.607Z,99.86
2023-03-04T00:06:26.716Z,99.17
2023-03-04T00:08:54.792Z,99.35
2023-03-04T00:11:22.863Z,98.43
2023-03-04T00:13:51.028Z,98.84
2023-03-04T00:16:19.114Z,97.98
2023-03-04T00:18:47.175Z,98.01
2023-03-04T00:21:16.617Z,98.97
2023-03-04T00:23:44.740Z,97.94
2023-03-04T00:26:13.595Z,98.55
2023-03-04T00:28:44.347Z,97.91
2023-03-04T00:31:12.974Z,97.60
2023-03-04T00:33:43.535Z,97.95
2023-03-04T00:36:12.405Z,98.72
2023-03-04T00:38:41.849Z,97.93
2023-03-04T00:41:09.970Z,98.43
2023-03-04T00:43:38.104Z,98.09
2023-03-04T00:46:07.256Z,97.97
2023-03-04T00:48:35.428Z,97.80
2023-03-04T00:51:03.480Z,98.47
2023-03-04T00:53:31.616Z,98.15
2023-03-04T00:56:01.026Z,98.23
2023-03-04T00:58:29.270Z,97.57
2023-03-04T01:00:57.357Z,98.02
2023-03-04T01:03:26.996Z,97.79
2023-03-04T01:05:55.095Z,97.71
2023-03-04T01:08:23.919Z,96.90
2023-03-04T01:10:54.337Z,97.16
2023-03-04T01:13:23.811Z,97.65
2023-03-04T01:15:52.023Z,97.93
2023-03-04T01:18:20.114Z,96.29
2023-03-04T01:20:48.290Z,96.17
2023-03-04T01:23:16.302Z,96.11
2023-03-04T01:25:44.403Z,97.42
2023-03-04T01:28:12.490Z,97.82
2023-03-04T01:30:43.767Z,97.95
2023-03-04T01:33:11.837Z,97.18
2023-03-04T01:35:39.925Z,96.96
2023-03-04T01:38:08.138Z,97.47
2023-03-04T01:40:36.279Z,98.35
2023-03-04T01:43:04.467Z,97.20
2023-03-04T01:45:33.599Z,96.71
2023-03-04T01:48:03.183Z,98.33
2023-03-04T01:50:34.379Z,98.65
2023-03-04T01:53:02.917Z,98.58
2023-03-04T01:55:32.095Z,99.19
2023-03-04T01:58:00.376Z,97.72
2023-03-04T02:00:32.114Z,97.92
2023-03-04T02:03:07.285Z,99.19
2023-03-04T02:05:38.115Z,96.89
2023-03-04T02:08:07.204Z,96.90
2023-03-04T02:10:35.935Z,97.73
2023-03-04T02:13:05.360Z,97.01
2023-03-04T02:15:34.249Z,98.13
2023-03-04T02:18:06.744Z,97.96
2023-03-04T02:20:43.775Z,97.72
2023-03-04T02:23:18.178Z,98.87
2023-03-04T02:25:51.056Z,98.73
2023-03-04T02:28:20.908Z,98.20
2023-03-04T02:30:49.195Z,96.75
2023-03-04T02:33:19.863Z,97.13
2023-03-04T02:35:48.189Z,97.21
2023-03-04T02:38:16.440Z,97.49
2023-03-04T02:40:49.772Z,97.37
2023-03-04T02:43:24.034Z,97.05
2023-03-04T02:45:53.229Z,95.92
2023-03-04T02:48:24.031Z,95.35
2023-03-04T02:50:54.098Z,96.33
2023-03-04T02:53:23.102Z,95.22
2023-03-04T02:55:51.454Z,95.17
2023-03-04T02:58:22.136Z,96.04
2023-03-04T03:00:51.683Z,96.24
2023-03-04T03:03:19.891Z,94.82
2023-03-04T03:05:48.406Z,94.92
2023-03-04T03:08:16.758Z,96.24
2023-03-04T03:10:44.953Z,95.99
2023-03-04T03:13:13.260Z,95.87
2023-03-04T03:15:42.488Z,95.47
2023-03-04T03:18:12.837Z,94.94
2023-03-04T03:20:43.458Z,94.70
2023-03-04T03:23:11.650Z,94.41
2023-03-04T03:25:39.906Z,94.32
2023-03-04T03:28:08.073Z,94.93
2023-03-04T03:30:36.302Z,95.94
2023-03-04T03:33:07.611Z,95.25
2023-03-04T03:35:37.319Z,95.32
2023-03-04T03:38:05.404Z,95.80
2023-03-04T03:40:33.537Z,95.68
2023-03-04T03:43:01.625Z,96.69
2023-03-04T03:45:29.777Z,95.42
2023-03-04T03:47:57.893Z,94.91
2023-03-04T03:50:26.052Z,95.35
2023-03-04T03:52:55.697Z,95.26
2023-03-04T03:55:23.796Z,94.39
2023-03-04T03:57:51.887Z,94.98
2023-03-04T04:00:20.811Z,94.39
2023-03-04T04:02:48.975Z,94.29
2023-03-04T04:05:17.252Z,93.61
2023-03-04T04:07:45.271Z,94.31
2023-03-04T04:10:14.696Z,94.26
2023-03-04T04:12:42.828Z,93.90
2023-03-04T04:15:12.864Z,93.58
2023-03-04T04:17:41.098Z,92.80
2023-03-04T04:20:10.625Z,92.99
2023-03-04T04:22:38.652Z,93.14
2023-03-04T04:25:10.627Z,93.83
2023-03-04T04:27:40.133Z,92.84
2023-03-04T04:30:09.318Z,92.64
2023-03-04T04:32:37.421Z,92.50
2023-03-04T04:35:06.217Z,93.17
2023-03-04T04:37:34.535Z,92.94
2023-03-04T04:40:02.624Z,92.89
2023-03-04T04:42:30.887Z,92.81
2023-03-04T04:45:00.304Z,91.96
2023-03-04T04:47:28.428Z,93.39
2023-03-04T04:49:56.512Z,93.37
2023-03-04T04:52:24.619Z,93.39
2023-03-04T04:54:52.649Z,91.04
2023-03-04T04:57:20.883Z,90.26
2023-03-04T04:59:48.974Z,89.28
2023-03-04T05:02:18.384Z,88.62
2023-03-04T05:04:46.460Z,88.73
2023-03-04T05:07:14.536Z,89.05
2023-03-04T05:09:42.611Z,88.23
2023-03-04T05:12:10.714Z,86.01
2023-03-04T05:14:38.942Z,88.05
2023-03-04T05:17:07.037Z,88.17
2023-03-04T05:19:36.442Z,88.07
2023-03-04T05:22:04.549Z,88.97
2023-03-04T05:24:32.592Z,90.02
2023-03-04T05:27:00.691Z,90.06
2023-03-04T05:29:28.939Z,90.42
2023-03-04T05:31:57.129Z,89.31
2023-03-04T05:34:25.171Z,88.08
2023-03-04T05:36:54.611Z,89.28
2023-03-04T05:39:22.627Z,89.95
2023-03-04T05:41:50.667Z,89.71
2023-03-04T05:44:20.768Z,90.39
2023-03-04T05:46:49.824Z,91.43
2023-03-04T05:49:17.856Z,91.68
2023-03-04T05:51:45.928Z,91.34
2023-03-04T05:54:16.208Z,91.34
2023-03-04T05:56:44.363Z,89.25
2023-03-04T05:59:12.461Z,89.14
2023-03-04T06:01:40.488Z,89.26
2023-03-04T06:04:08.577Z,89.06
2023-03-04T06:06:36.715Z,88.54
2023-03-04T06:09:04.928Z,88.52
2023-03-04T06:11:36.325Z,89.07
2023-03-04T06:14:04.758Z,87.88
2023-03-04T06:16:33.643Z,87.49
2023-03-04T06:19:01.712Z,89.33
2023-03-04T06:21:29.778Z,88.89
2023-03-04T06:23:57.884Z,90.13
2023-03-04T06:26:25.922Z,89.69
2023-03-04T06:28:57.145Z,88.24
2023-03-04T06:31:25.249Z,87.44
2023-03-04T06:33:53.413Z,88.12
2023-03-04T06:36:21.466Z,88.24
2023-03-04T06:38:49.605Z,87.86
2023-03-04T06:41:17.668Z,86.28
2023-03-04T06:43:45.762Z,88.29
2023-03-04T06:46:15.274Z,88.70
2023-03-04T06:48:43.359Z,88.72
2023-03-04T06:51:14.545Z,89.49
2023-03-04T06:53:43.588Z,89.37
2023-03-04T06:56:13.693Z,86.98
2023-03-04T06:58:41.806Z,87.75
2023-03-04T07:01:16.095Z,88.85
2023-03-04T07:03:44.849Z,89.18
2023-03-04T07:06:14.204Z,89.10
2023-03-04T07:08:42.840Z,89.70
2023-03-04T07:11:11.415Z,89.75
2023-03-04T07:13:39.508Z,89.11
2023-03-04T07:16:08.904Z,89.33
2023-03-04T07:18:38.644Z,88.73
2023-03-04T07:21:07.895Z,88.32
2023-03-04T07:23:36.484Z,89.51
2023-03-04T07:26:05.009Z,88.32
2023-03-04T07:28:33.332Z,88.27
2023-03-04T07:31:10.591Z,87.28
2023-03-04T07:33:40.056Z,86.52
2023-03-04T07:36:08.341Z,86.60
2023-03-04T07:38:36.421Z,86.87
2023-03-04T07:41:04.683Z,87.55
2023-03-04T07:43:32.784Z,86.83
2023-03-04T07:46:02.090Z,87.42
2023-03-04T07:48:30.294Z,87.44
2023-03-04T07:51:07.896Z,88.59
2023-03-04T07:53:36.858Z,87.60
2023-03-04T07:56:05.797Z,87.84
2023-03-04T07:58:34.328Z,88.60
2023-03-04T08:01:02.351Z,87.67
2023-03-04T08:03:30.824Z,88.99
2023-03-04T08:05:58.869Z,88.98
2023-03-04T08:08:28.450Z,87.91
2023-03-04T08:10:56.615Z,87.57
2023-03-04T08:13:25.901Z,87.50
2023-03-04T08:15:56.575Z,88.51
2023-03-04T08:18:24.928Z,86.88
2023-03-04T08:20:53.472Z,86.71
2023-03-04T08:23:21.850Z,86.51
2023-03-04T08:25:51.415Z,86.20
2023-03-04T08:28:20.204Z,87.08
2023-03-04T08:30:54.673Z,85.62
2023-03-04T08:33:22.826Z,85.46
2023-03-04T08:35:50.993Z,84.88
2023-03-04T08:38:19.084Z,84.93
2023-03-04T08:40:47.214Z,85.45
2023-03-04T08:43:16.710Z,84.41
2023-03-04T08:45:44.874Z,84.96
2023-03-04T08:48:13.174Z,86.44
2023-03-04T08:50:41.375Z,85.21
2023-03-04T08:53:09.478Z,85.08
2023-03-04T08:55:39.665Z,84.18
2023-03-04T08:58:08.180Z,85.17
2023-03-04T09:00:42.440Z,84.21
2023-03-04T09:03:13.227Z,82.99
2023-03-04T09:05:42.104Z,83.36
2023-03-04T09:08:10.112Z,82.36
2023-03-04T09:10:38.317Z,83.72
2023-03-04T09:13:06.688Z,84.28
2023-03-04T09:15:36.146Z,83.24
2023-03-04T09:18:06.861Z,84.14
2023-03-04T09:20:34.990Z,82.22
2023-03-04T09:23:03.180Z,84.02
2023-03-04T09:25:31.300Z,82.23
2023-03-04T09:27:59.471Z,82.84
2023-03-04T09:30:29.028Z,83.36
2023-03-04T09:32:57.524Z,83.31
2023-03-04T09:35:27.084Z,82.19
2023-03-04T09:37:55.232Z,83.60
2023-03-04T09:40:25.678Z,83.39
2023-03-04T09:42:58.163Z,83.97
2023-03-04T09:45:30.861Z,83.05
2023-03-04T09:47:59.868Z,83.54
2023-03-04T09:50:34.735Z,81.40
2023-03-04T09:53:14.993Z,81.46
2023-03-04T09:55:48.184Z,81.89
2023-03-04T09:58:29.548Z,81.09
2023-03-04T10:01:05.225Z,81.50
2023-03-04T10:03:43.095Z,81.15
2023-03-04T10:06:18.028Z,79.41
2023-03-04T10:08:53.071Z,78.75
2023-03-04T10:11:27.170Z,79.88
2023-03-04T10:14:01.386Z,79.47
2023-03-04T10:16:36.031Z,79.52
2023-03-04T10:19:19.149Z,79.62
2023-03-04T10:21:51.096Z,80.88
2023-03-04T10:24:22.700Z,80.42
2023-03-04T10:26:54.653Z,82.03
2023-03-04T10:29:24.918Z,80.46
2023-03-04T10:31:56.145Z,81.95
2023-03-04T10:34:24.875Z,81.44
2023-03-04T10:37:01.289Z,82.63
2023-03-04T10:39:31.774Z,83.24
2023-03-04T10:42:02.548Z,82.38
2023-03-04T10:44:32.066Z,82.70
2023-03-04T10:47:00.344Z,83.40
2023-03-04T10:49:31.049Z,82.80
2023-03-04T10:52:16.442Z,83.08
2023-03-04T10:54:50.057Z,83.44
2023-03-04T10:57:20.676Z,82.10
2023-03-04T10:59:53.566Z,81.06
2023-03-04T11:02:27.095Z,82.17
2023-03-04T11:04:58.101Z,82.61
2023-03-04T11:07:28.758Z,82.80
2023-03-04T11:09:58.458Z,81.96
2023-03-04T11:12:35.144Z,82.30
2023-03-04T11:15:07.252Z,82.38
2023-03-04T11:17:45.158Z,81.78
2023-03-04T11:20:19.353Z,80.44
2023-03-04T11:22:48.875Z,84.50
2023-03-04T11:25:28.060Z,82.06
2023-03-04T11:27:58.803Z,83.55
2023-03-04T11:30:42.217Z,83.29
2023-03-04T11:33:17.131Z,83.91
2023-03-04T11:35:58.292Z,83.42
2023-03-04T11:38:36.737Z,81.82
2023-03-04T11:41:13.664Z,83.96
2023-03-04T11:43:46.255Z,85.31
2023-03-04T11:46:36.732Z,85.96
2023-03-04T11:49:22.677Z,86.52
2023-03-04T11:52:06.816Z,84.82
2023-03-04T11:54:46.459Z,83.91
2023-03-04T11:57:26.296Z,85.09
2023-03-04T12:00:05.142Z,85.30
2023-03-04T12:02:47.802Z,83.24
2023-03-04T12:05:25.078Z,85.46
2023-03-04T12:08:35.685Z,86.09
2023-03-04T12:11:11.429Z,85.48
2023-03-04T12:14:02.726Z,86.63
2023-03-04T12:16:48.476Z,86.77
2023-03-04T12:19:35.083Z,86.81
2023-03-04T12:22:25.556Z,88.77
2023-03-04T12:25:36.223Z,86.85
2023-03-04T12:28:20.456Z,87.17
2023-03-04T12:31:00.954Z,86.83
2023-03-04T12:33:40.087Z,86.94
2023-03-04T12:36:18.639Z,87.57
2023-03-04T12:39:01.953Z,88.76
2023-03-04T12:41:49.669Z,86.56
2023-03-04T12:44:21.024Z,85.54
2023-03-04T12:47:11.951Z,86.59
2023-03-04T12:49:56.766Z,86.22
2023-03-04T12:52:36.154Z,85.70
2023-03-04T12:55:09.429Z,84.80
2023-03-04T12:57:38.824Z,85.08
2023-03-04T13:00:23.725Z,84.20
2023-03-04T13:03:10.360Z,85.72
2023-03-04T13:06:03.941Z,86.37
2023-03-04T13:08:41.934Z,86.57
2023-03-04T13:11:42.475Z,84.13
2023-03-04T13:14:26.393Z,83.99
2023-03-04T13:16:57.502Z,84.87
2023-03-04T13:19:47.166Z,83.91
2023-03-04T13:22:34.704Z,84.53
2023-03-04T13:25:19.464Z,84.00
2023-03-04T13:27:50.173Z,82.39
2023-03-04T13:30:44.884Z,82.53
2023-03-04T13:33:53.289Z,82.98
2023-03-04T13:36:34.122Z,82.93
2023-03-04T13:39:04.020Z,85.18
2023-03-04T13:41:34.200Z,84.14
2023-03-04T13:44:03.226Z,84.49
2023-03-04T13:46:42.843Z,83.87
2023-03-04T13:49:23.719Z,82.97
2023-03-04T13:51:52.883Z,82.80
2023-03-04T13:54:28.834Z,82.79
2023-03-04T13:57:17.926Z,81.83
2023-03-04T13:59:48.931Z,82.21
2023-03-04T14:02:20.082Z,82.75
2023-03-04T14:04:59.723Z,83.21
2023-03-04T14:07:29.646Z,83.03
2023-03-04T14:10:01.990Z,81.72
2023-03-04T14:12:34.599Z,80.68
2023-03-04T14:15:05.857Z,81.23
2023-03-04T14:17:42.801Z,82.31
2023-03-04T14:20:28.851Z,79.36
2023-03-04T14:22:57.759Z,80.01
2023-03-04T14:25:28.018Z,81.81
2023-03-04T14:28:11.167Z,83.88
2023-03-04T14:30:43.330Z,83.60
2023-03-04T14:33:18.887Z,83.39
2023-03-04T14:35:50.063Z,84.14
2023-03-04T14:38:24.545Z,84.25
2023-03-04T14:40:58.405Z,84.57
2023-03-04T14:43:28.059Z,84.91
2023-03-04T14:45:59.796Z,83.63
2023-03-04T14:48:31.991Z,85.18
2023-03-04T14:51:03.341Z,83.28
2023-03-04T14:53:32.602Z,85.31
2023-03-04T14:56:04.563Z,86.05
2023-03-04T14:58:34.373Z,84.11
2023-03-04T15:01:16.490Z,83.84
2023-03-04T15:03:57.497Z,82.94
2023-03-04T15:06:29.464Z,82.07
2023-03-04T15:09:01.270Z,83.49
2023-03-04T15:11:32.858Z,82.72
2023-03-04T15:14:02.843Z,81.94
2023-03-04T15:16:55.051Z,81.67
2023-03-04T15:19:28.415Z,82.50
2023-03-04T15:22:06.638Z,82.65
2023-03-04T15:24:35.022Z,82.27
2023-03-04T15:27:04.279Z,82.45
2023-03-04T15:29:32.496Z,81.78
2023-03-04T15:32:01.413Z,81.09
2023-03-04T15:34:29.717Z,81.78
2023-03-04T15:37:00.411Z,82.26
2023-03-04T15:39:30.000Z,81.64
2023-03-04T15:41:58.366Z,80.48
2023-03-04T15:44:26.573Z,78.82
2023-03-04T15:46:54.671Z,79.77
2023-03-04T15:49:22.843Z,79.99
2023-03-04T15:51:51.018Z,79.58
2023-03-04T15:54:19.185Z,77.91
2023-03-04T15:56:48.673Z,77.63
2023-03-04T15:59:18.504Z,77.80
2023-03-04T16:01:46.756Z,77.68
2023-03-04T16:04:17.257Z,76.27
2023-03-04T16:06:46.798Z,75.80
2023-03-04T16:09:17.957Z,75.73
2023-03-04T16:11:48.559Z,75.99
2023-03-04T16:14:17.766Z,77.24
2023-03-04T16:16:47.025Z,76.02
2023-03-04T16:19:15.368Z,77.05
2023-03-04T16:21:43.627Z,76.15
2023-03-04T16:24:17.791Z,74.80
2023-03-04T16:26:46.059Z,76.35
2023-03-04T16:29:16.644Z,75.34
2023-03-04T16:31:45.182Z,76.10
2023-03-04T16:34:13.321Z,75.80
2023-03-04T16:36:41.593Z,75.78
2023-03-04T16:39:18.969Z,76.91
2023-03-04T16:41:47.220Z,75.69
2023-03-04T16:44:17.117Z,75.59
2023-03-04T16:46:45.666Z,75.46
2023-03-04T16:49:16.289Z,75.07
2023-03-04T16:51:48.219Z,75.71
2023-03-04T16:54:26.639Z,75.61
2023-03-04T16:56:55.752Z,75.06
2023-03-04T16:59:25.272Z,75.49
2023-03-04T17:01:54.629Z,75.46
2023-03-04T17:04:23.702Z,74.74
2023-03-04T17:06:52.001Z,75.55
2023-03-04T17:09:20.132Z,75.32
2023-03-04T17:11:48.693Z,74.15
2023-03-04T17:14:16.861Z,75.23
2023-03-04T17:16:46.445Z,74.24
2023-03-04T17:19:14.632Z,75.23
2023-03-04T17:21:42.819Z,75.11
2023-03-04T17:24:11.982Z,75.10
2023-03-04T17:26:40.760Z,75.34
2023-03-04T17:29:08.983Z,75.80
2023-03-04T17:31:38.130Z,74.61
2023-03-04T17:34:08.466Z,74.15
2023-03-04T17:36:36.681Z,74.90
2023-03-04T17:39:05.776Z,74.61
2023-03-04T17:41:36.127Z,75.36
2023-03-04T17:44:05.968Z,74.79
2023-03-04T17:46:34.268Z,75.20
2023-03-04T17:49:02.474Z,75.94
2023-03-04T17:51:34.170Z,75.04
2023-03-04T17:54:02.839Z,74.12
2023-03-04T17:56:31.501Z,74.56
2023-03-04T17:59:00.605Z,74.97
2023-03-04T18:01:29.099Z,75.12
2023-03-04T18:03:57.529Z,74.84
2023-03-04T18:06:26.019Z,75.56
2023-03-04T18:08:56.159Z,75.26
2023-03-04T19:38:01.536Z,79.94
2023-03-04T19:40:29.864Z,80.34
2023-03-04T19:42:58.150Z,79.39
2023-03-04T19:46:10.154Z,80.19
2023-03-04T19:48:41.398Z,80.12
2023-03-04T19:51:15.915Z,80.01
2023-03-04T19:53:44.085Z,79.84
2023-03-04T19:56:12.420Z,80.97
2023-03-04T19:58:40.530Z,81.05
2023-03-04T20:01:21.264Z,80.30
2023-03-04T20:03:49.333Z,79.37
2023-03-04T20:06:17.369Z,79.49
2023-03-04T20:08:45.431Z,78.28
2023-03-04T20:11:14.642Z,79.59
2023-03-04T20:13:42.789Z,79.13
2023-03-04T20:16:13.377Z,79.99
2023-03-04T20:18:42.455Z,78.70
2023-03-04T20:21:11.164Z,79.38
2023-03-04T20:23:39.379Z,79.67
2023-03-04T20:26:07.621Z,79.05
2023-03-04T20:28:49.933Z,79.54
2023-03-04T20:31:23.161Z,78.53
2023-03-04T20:33:52.687Z,80.87
2023-03-04T20:36:22.301Z,83.11
2023-03-04T20:38:55.851Z,87.99
2023-03-04T20:41:31.441Z,88.08
2023-03-04T20:44:00.290Z,86.78
2023-03-04T20:46:33.494Z,85.06
2023-03-04T20:49:04.630Z,81.91
2023-03-04T20:51:33.714Z,80.65
2023-03-04T20:54:02.076Z,79.40
2023-03-04T20:56:30.361Z,78.59
2023-03-04T20:59:01.221Z,78.60
2023-03-04T21:01:32.086Z,76.97
2023-03-04T21:04:01.176Z,76.52
2023-03-04T21:06:29.605Z,76.55
2023-03-04T21:09:00.691Z,76.37
2023-03-04T21:11:28.936Z,77.47
2023-03-04T21:13:57.867Z,77.64
2023-03-04T21:16:29.688Z,77.63
2023-03-04T21:19:00.114Z,79.00
2023-03-04T21:21:29.786Z,79.92
2023-03-04T21:23:59.596Z,79.80
2023-03-04T21:26:27.858Z,79.70
2023-03-04T21:28:55.999Z,80.07
2023-03-04T21:31:26.246Z,80.50
2023-03-04T21:33:56.530Z,81.29
2023-03-04T21:36:26.118Z,79.54
2023-03-04T21:38:54.378Z,78.64
2023-03-04T21:41:24.635Z,79.86
2023-03-04T21:43:53.069Z,79.17
2023-03-04T21:46:22.837Z,80.61
2023-03-04T21:48:50.942Z,80.56
2023-03-04T21:51:19.085Z,78.41
2023-03-04T21:53:48.539Z,76.94
2023-03-04T21:56:16.623Z,78.58
2023-03-04T21:58:45.957Z,78.72
2023-03-04T22:01:15.434Z,79.83
2023-03-04T22:03:43.581Z,81.29
2023-03-04T22:06:13.360Z,81.26
2023-03-04T22:08:42.495Z,81.07
2023-03-04T22:11:12.831Z,80.55
2023-03-04T22:13:41.522Z,81.02
2023-03-04T22:16:11.024Z,81.48
2023-03-04T22:18:40.786Z,81.11
2023-03-04T22:21:10.824Z,80.60
2023-03-04T22:23:39.197Z,80.97
2023-03-04T22:26:09.342Z,78.69
2023-03-04T22:28:39.487Z,77.65
2023-03-04T22:31:15.555Z,77.14
2023-03-04T22:33:44.786Z,79.51
2023-03-04T22:36:13.751Z,77.27
2023-03-04T22:38:44.591Z,77.09
2023-03-04T22:41:16.302Z,76.86
2023-03-04T22:43:46.437Z,76.31
2023-03-04T22:46:15.740Z,75.28
2023-03-04T22:48:44.042Z,75.76
2023-03-04T22:51:12.759Z,76.61
2023-03-04T22:53:41.264Z,75.32
2023-03-04T22:56:09.392Z,77.18
2023-03-04T22:58:37.493Z,79.30
2023-03-04T23:01:08.004Z,81.70
2023-03-04T23:03:36.820Z,81.02
2023-03-04T23:06:08.090Z,81.53
2023-03-04T23:08:38.045Z,81.46
2023-03-04T23:11:10.173Z,80.94
2023-03-04T23:13:38.787Z,80.33
2023-03-04T23:16:09.990Z,78.54
2023-03-04T23:18:39.324Z,77.29
2023-03-04T23:21:08.561Z,76.17
2023-03-04T23:23:37.397Z,74.67
2023-03-04T23:26:05.918Z,73.99
2023-03-04T23:28:33.933Z,74.00
2023-03-04T23:31:03.314Z,72.90
2023-03-04T23:33:34.404Z,72.12
2023-03-04T23:36:02.777Z,71.82
2023-03-04T23:38:30.875Z,71.12
2023-03-04T23:40:58.925Z,71.17
2023-03-04T23:43:29.044Z,71.56
2023-03-04T23:45:59.088Z,71.41
2023-03-04T23:48:27.329Z,71.20
2023-03-04T23:51:00.038Z,73.12
2023-03-04T23:53:28.844Z,72.57
2023-03-04T23:55:56.935Z,70.75
2023-03-04T23:58:25.023Z,72.57
